sensor_id;sensor_type;location;lat;lon;timestamp;P1;durP1;ratioP1;P2;durP2;ratioP2
9256;SDS011;4665;51.368;6.782;2023-09-19T00:00:43;9.57;;;2.40;;
9256;SDS011;4665;51.368;6.782;2023-09-19T00:03:09;11.93;;;2.63;;
9256;SDS011;4665;51.368;6.782;2023-09-19T00:05:35;7.00;;;3.03;;
9256;SDS011;4665;51.368;6.782;2023-09-19T00:08:00;9.87;;;2.90;;
9256;SDS011;4665;51.368;6.782;2023-09-19T00:10:29;7.70;;;3.10;;
9256;SDS011;4665;51.368;6.782;2023-09-19T00:12:56;4.43;;;2.47;;
9256;SDS011;4665;51.368;6.782;2023-09-19T00:15:23;6.67;;;2.43;;
9256;SDS011;4665;51.368;6.782;2023-09-19T00:17:49;8.30;;;2.50;;
9256;SDS011;4665;51.368;6.782;2023-09-19T00:20:17;6.27;;;2.60;;
9256;SDS011;4665;51.368;6.782;2023-09-19T00:22:43;7.57;;;2.40;;
9256;SDS011;4665;51.368;6.782;2023-09-19T00:25:08;8.10;;;2.50;;
9256;SDS011;4665;51.368;6.782;2023-09-19T00:27:35;6.50;;;2.70;;
9256;SDS011;4665;51.368;6.782;2023-09-19T00:30:00;9.23;;;2.80;;
9256;SDS011;4665;51.368;6.782;2023-09-19T00:32:25;6.73;;;2.87;;
9256;SDS011;4665;51.368;6.782;2023-09-19T00:34:56;5.97;;;2.50;;
9256;SDS011;4665;51.368;6.782;2023-09-19T00:37:21;10.17;;;2.93;;
9256;SDS011;4665;51.368;6.782;2023-09-19T00:39:46;7.60;;;2.73;;
9256;SDS011;4665;51.368;6.782;2023-09-19T00:42:17;6.27;;;2.67;;
9256;SDS011;4665;51.368;6.782;2023-09-19T00:44:44;6.40;;;2.77;;
9256;SDS011;4665;51.368;6.782;2023-09-19T00:47:09;7.67;;;3.00;;
9256;SDS011;4665;51.368;6.782;2023-09-19T00:49:40;6.70;;;2.23;;
9256;SDS011;4665;51.368;6.782;2023-09-19T00:52:06;8.20;;;2.67;;
9256;SDS011;4665;51.368;6.782;2023-09-19T00:54:31;11.33;;;3.27;;
9256;SDS011;4665;51.368;6.782;2023-09-19T00:56:58;7.13;;;3.07;;
9256;SDS011;4665;51.368;6.782;2023-09-19T00:59:24;7.60;;;2.83;;
9256;SDS011;4665;51.368;6.782;2023-09-19T01:01:49;6.87;;;2.33;;
9256;SDS011;4665;51.368;6.782;2023-09-19T01:04:18;4.77;;;2.20;;
9256;SDS011;4665;51.368;6.782;2023-09-19T01:06:43;8.33;;;3.10;;
9256;SDS011;4665;51.368;6.782;2023-09-19T01:09:10;8.23;;;3.00;;
9256;SDS011;4665;51.368;6.782;2023-09-19T01:11:38;7.73;;;2.90;;
9256;SDS011;4665;51.368;6.782;2023-09-19T01:25:02;7.50;;;2.83;;
9256;SDS011;4665;51.368;6.782;2023-09-19T01:30:06;8.23;;;2.60;;
9256;SDS011;4665;51.368;6.782;2023-09-19T01:32:32;5.63;;;2.53;;
9256;SDS011;4665;51.368;6.782;2023-09-19T01:34:58;14.37;;;2.70;;
9256;SDS011;4665;51.368;6.782;2023-09-19T01:37:28;9.30;;;2.30;;
9256;SDS011;4665;51.368;6.782;2023-09-19T01:40:04;8.97;;;2.63;;
9256;SDS011;4665;51.368;6.782;2023-09-19T01:42:58;5.97;;;2.63;;
9256;SDS011;4665;51.368;6.782;2023-09-19T01:47:56;5.93;;;2.40;;
9256;SDS011;4665;51.368;6.782;2023-09-19T01:50:34;7.90;;;2.83;;
9256;SDS011;4665;51.368;6.782;2023-09-19T01:55:46;9.37;;;2.60;;
9256;SDS011;4665;51.368;6.782;2023-09-19T01:59:04;5.80;;;2.20;;
9256;SDS011;4665;51.368;6.782;2023-09-19T02:01:02;8.53;;;2.90;;
9256;SDS011;4665;51.368;6.782;2023-09-19T02:03:28;10.00;;;3.10;;
9256;SDS011;4665;51.368;6.782;2023-09-19T02:05:54;6.63;;;2.93;;
9256;SDS011;4665;51.368;6.782;2023-09-19T02:08:20;8.97;;;3.20;;
9256;SDS011;4665;51.368;6.782;2023-09-19T02:10:45;9.47;;;2.90;;
9256;SDS011;4665;51.368;6.782;2023-09-19T02:13:15;10.27;;;3.23;;
9256;SDS011;4665;51.368;6.782;2023-09-19T02:15:40;8.67;;;2.80;;
9256;SDS011;4665;51.368;6.782;2023-09-19T02:18:06;7.87;;;2.57;;
9256;SDS011;4665;51.368;6.782;2023-09-19T02:20:32;9.13;;;2.90;;
9256;SDS011;4665;51.368;6.782;2023-09-19T02:22:58;6.30;;;2.73;;
9256;SDS011;4665;51.368;6.782;2023-09-19T02:25:23;9.30;;;2.67;;
9256;SDS011;4665;51.368;6.782;2023-09-19T02:27:51;9.33;;;2.90;;
9256;SDS011;4665;51.368;6.782;2023-09-19T02:30:19;6.10;;;2.57;;
9256;SDS011;4665;51.368;6.782;2023-09-19T02:32:45;8.83;;;2.83;;
9256;SDS011;4665;51.368;6.782;2023-09-19T02:35:11;10.67;;;2.83;;
9256;SDS011;4665;51.368;6.782;2023-09-19T02:37:37;8.47;;;2.37;;
9256;SDS011;4665;51.368;6.782;2023-09-19T02:40:02;11.87;;;2.70;;
9256;SDS011;4665;51.368;6.782;2023-09-19T02:42:44;8.33;;;2.93;;
9256;SDS011;4665;51.368;6.782;2023-09-19T02:45:13;12.90;;;2.90;;
9256;SDS011;4665;51.368;6.782;2023-09-19T02:47:42;9.40;;;2.73;;
9256;SDS011;4665;51.368;6.782;2023-09-19T02:50:08;5.30;;;2.43;;
9256;SDS011;4665;51.368;6.782;2023-09-19T02:52:35;6.07;;;2.63;;
9256;SDS011;4665;51.368;6.782;2023-09-19T02:55:01;5.10;;;2.30;;
9256;SDS011;4665;51.368;6.782;2023-09-19T02:57:26;7.37;;;2.80;;
9256;SDS011;4665;51.368;6.782;2023-09-19T02:59:52;8.60;;;2.23;;
9256;SDS011;4665;51.368;6.782;2023-09-19T03:02:17;8.63;;;2.73;;
9256;SDS011;4665;51.368;6.782;2023-09-19T03:04:43;10.13;;;2.73;;
9256;SDS011;4665;51.368;6.782;2023-09-19T03:07:10;5.50;;;2.77;;
9256;SDS011;4665;51.368;6.782;2023-09-19T03:09:36;10.20;;;2.80;;
9256;SDS011;4665;51.368;6.782;2023-09-19T03:12:01;5.00;;;2.07;;
9256;SDS011;4665;51.368;6.782;2023-09-19T03:14:28;9.33;;;2.37;;
9256;SDS011;4665;51.368;6.782;2023-09-19T03:16:55;8.23;;;2.50;;
9256;SDS011;4665;51.368;6.782;2023-09-19T03:19:21;3.50;;;2.27;;
9256;SDS011;4665;51.368;6.782;2023-09-19T03:21:48;8.80;;;2.70;;
9256;SDS011;4665;51.368;6.782;2023-09-19T03:24:15;6.57;;;2.60;;
9256;SDS011;4665;51.368;6.782;2023-09-19T03:26:40;7.37;;;2.60;;
9256;SDS011;4665;51.368;6.782;2023-09-19T03:29:06;9.00;;;2.60;;
9256;SDS011;4665;51.368;6.782;2023-09-19T03:31:31;7.07;;;2.67;;
9256;SDS011;4665;51.368;6.782;2023-09-19T03:33:57;9.93;;;2.57;;
9256;SDS011;4665;51.368;6.782;2023-09-19T03:36:22;5.30;;;1.90;;
9256;SDS011;4665;51.368;6.782;2023-09-19T03:38:47;7.73;;;2.60;;
9256;SDS011;4665;51.368;6.782;2023-09-19T03:41:13;7.23;;;2.50;;
9256;SDS011;4665;51.368;6.782;2023-09-19T03:43:39;8.70;;;2.57;;
9256;SDS011;4665;51.368;6.782;2023-09-19T03:46:04;4.40;;;2.30;;
9256;SDS011;4665;51.368;6.782;2023-09-19T03:48:30;6.30;;;2.60;;
9256;SDS011;4665;51.368;6.782;2023-09-19T03:50:55;7.07;;;2.23;;
9256;SDS011;4665;51.368;6.782;2023-09-19T03:53:21;7.20;;;2.70;;
9256;SDS011;4665;51.368;6.782;2023-09-19T03:55:47;7.57;;;3.20;;
9256;SDS011;4665;51.368;6.782;2023-09-19T03:58:12;6.50;;;2.50;;
9256;SDS011;4665;51.368;6.782;2023-09-19T04:00:38;9.77;;;2.97;;
9256;SDS011;4665;51.368;6.782;2023-09-19T04:03:03;6.83;;;2.53;;
9256;SDS011;4665;51.368;6.782;2023-09-19T04:05:31;6.40;;;2.47;;
9256;SDS011;4665;51.368;6.782;2023-09-19T04:07:56;5.30;;;2.57;;
9256;SDS011;4665;51.368;6.782;2023-09-19T04:10:21;7.93;;;2.33;;
9256;SDS011;4665;51.368;6.782;2023-09-19T04:12:50;8.87;;;2.90;;
9256;SDS011;4665;51.368;6.782;2023-09-19T04:15:15;5.23;;;2.13;;
9256;SDS011;4665;51.368;6.782;2023-09-19T04:17:41;5.90;;;2.13;;
9256;SDS011;4665;51.368;6.782;2023-09-19T04:20:06;5.00;;;2.47;;
9256;SDS011;4665;51.368;6.782;2023-09-19T04:22:32;3.87;;;2.10;;
9256;SDS011;4665;51.368;6.782;2023-09-19T04:24:57;7.13;;;1.97;;
9256;SDS011;4665;51.368;6.782;2023-09-19T04:27:23;7.37;;;2.53;;
9256;SDS011;4665;51.368;6.782;2023-09-19T04:29:48;7.37;;;2.50;;
9256;SDS011;4665;51.368;6.782;2023-09-19T04:32:14;6.30;;;2.50;;
9256;SDS011;4665;51.368;6.782;2023-09-19T04:34:40;11.43;;;2.67;;
9256;SDS011;4665;51.368;6.782;2023-09-19T04:37:06;6.90;;;2.70;;
9256;SDS011;4665;51.368;6.782;2023-09-19T04:39:31;8.80;;;3.17;;
9256;SDS011;4665;51.368;6.782;2023-09-19T04:41:56;6.40;;;2.10;;
9256;SDS011;4665;51.368;6.782;2023-09-19T04:44:22;8.20;;;2.60;;
9256;SDS011;4665;51.368;6.782;2023-09-19T04:46:48;8.73;;;2.57;;
9256;SDS011;4665;51.368;6.782;2023-09-19T04:49:13;10.30;;;2.60;;
9256;SDS011;4665;51.368;6.782;2023-09-19T04:51:38;8.03;;;2.90;;
9256;SDS011;4665;51.368;6.782;2023-09-19T04:54:04;7.37;;;2.40;;
9256;SDS011;4665;51.368;6.782;2023-09-19T04:56:29;5.23;;;2.67;;
9256;SDS011;4665;51.368;6.782;2023-09-19T04:58:55;10.03;;;2.60;;
9256;SDS011;4665;51.368;6.782;2023-09-19T05:01:22;6.07;;;2.73;;
9256;SDS011;4665;51.368;6.782;2023-09-19T05:03:47;6.53;;;3.00;;
9256;SDS011;4665;51.368;6.782;2023-09-19T05:06:17;6.03;;;2.60;;
9256;SDS011;4665;51.368;6.782;2023-09-19T05:08:43;5.97;;;2.57;;
9256;SDS011;4665;51.368;6.782;2023-09-19T05:11:08;8.07;;;2.93;;
9256;SDS011;4665;51.368;6.782;2023-09-19T05:13:34;4.03;;;2.57;;
9256;SDS011;4665;51.368;6.782;2023-09-19T05:15:59;6.70;;;2.80;;
9256;SDS011;4665;51.368;6.782;2023-09-19T05:18:25;5.83;;;2.60;;
9256;SDS011;4665;51.368;6.782;2023-09-19T05:20:50;7.13;;;2.60;;
9256;SDS011;4665;51.368;6.782;2023-09-19T05:23:16;10.93;;;3.20;;
9256;SDS011;4665;51.368;6.782;2023-09-19T05:25:41;8.97;;;2.60;;
9256;SDS011;4665;51.368;6.782;2023-09-19T05:28:09;8.60;;;2.80;;
9256;SDS011;4665;51.368;6.782;2023-09-19T05:30:36;11.07;;;3.10;;
9256;SDS011;4665;51.368;6.782;2023-09-19T05:33:03;8.43;;;2.83;;
9256;SDS011;4665;51.368;6.782;2023-09-19T05:35:29;11.17;;;2.80;;
9256;SDS011;4665;51.368;6.782;2023-09-19T05:37:54;5.60;;;2.50;;
9256;SDS011;4665;51.368;6.782;2023-09-19T05:40:22;4.70;;;2.53;;
9256;SDS011;4665;51.368;6.782;2023-09-19T05:42:48;8.33;;;2.50;;
9256;SDS011;4665;51.368;6.782;2023-09-19T05:45:15;10.47;;;3.10;;
9256;SDS011;4665;51.368;6.782;2023-09-19T05:47:44;6.63;;;2.53;;
9256;SDS011;4665;51.368;6.782;2023-09-19T05:50:10;9.10;;;2.80;;
9256;SDS011;4665;51.368;6.782;2023-09-19T05:52:36;6.00;;;2.40;;
9256;SDS011;4665;51.368;6.782;2023-09-19T05:55:06;8.93;;;2.90;;
9256;SDS011;4665;51.368;6.782;2023-09-19T05:57:32;6.60;;;2.47;;
9256;SDS011;4665;51.368;6.782;2023-09-19T05:59:58;6.53;;;2.70;;
9256;SDS011;4665;51.368;6.782;2023-09-19T06:02:23;10.40;;;3.00;;
9256;SDS011;4665;51.368;6.782;2023-09-19T06:04:48;5.37;;;2.27;;
9256;SDS011;4665;51.368;6.782;2023-09-19T06:07:14;6.30;;;2.30;;
9256;SDS011;4665;51.368;6.782;2023-09-19T06:09:40;7.57;;;2.57;;
9256;SDS011;4665;51.368;6.782;2023-09-19T06:12:05;6.50;;;2.67;;
9256;SDS011;4665;51.368;6.782;2023-09-19T06:14:30;7.30;;;2.50;;
9256;SDS011;4665;51.368;6.782;2023-09-19T06:16:56;10.30;;;2.70;;
9256;SDS011;4665;51.368;6.782;2023-09-19T06:19:21;9.20;;;3.00;;
9256;SDS011;4665;51.368;6.782;2023-09-19T06:21:47;7.53;;;2.73;;
9256;SDS011;4665;51.368;6.782;2023-09-19T06:24:13;8.63;;;2.67;;
9256;SDS011;4665;51.368;6.782;2023-09-19T06:26:38;8.70;;;2.80;;
9256;SDS011;4665;51.368;6.782;2023-09-19T06:29:03;7.37;;;3.00;;
9256;SDS011;4665;51.368;6.782;2023-09-19T06:31:29;10.30;;;2.80;;
9256;SDS011;4665;51.368;6.782;2023-09-19T06:33:55;11.57;;;2.40;;
9256;SDS011;4665;51.368;6.782;2023-09-19T06:36:21;8.23;;;2.53;;
9256;SDS011;4665;51.368;6.782;2023-09-19T06:38:46;4.67;;;2.23;;
9256;SDS011;4665;51.368;6.782;2023-09-19T06:41:12;5.00;;;2.50;;
9256;SDS011;4665;51.368;6.782;2023-09-19T06:43:38;5.07;;;2.50;;
9256;SDS011;4665;51.368;6.782;2023-09-19T06:46:04;6.83;;;2.40;;
9256;SDS011;4665;51.368;6.782;2023-09-19T06:48:29;8.40;;;2.60;;
9256;SDS011;4665;51.368;6.782;2023-09-19T06:50:57;13.60;;;2.57;;
9256;SDS011;4665;51.368;6.782;2023-09-19T06:53:33;6.10;;;2.33;;
9256;SDS011;4665;51.368;6.782;2023-09-19T06:56:00;13.23;;;3.13;;
9256;SDS011;4665;51.368;6.782;2023-09-19T06:58:25;7.10;;;2.80;;
9256;SDS011;4665;51.368;6.782;2023-09-19T07:00:51;8.93;;;2.70;;
9256;SDS011;4665;51.368;6.782;2023-09-19T07:03:16;8.00;;;3.20;;
9256;SDS011;4665;51.368;6.782;2023-09-19T07:05:47;10.37;;;3.20;;
9256;SDS011;4665;51.368;6.782;2023-09-19T07:08:12;10.73;;;2.60;;
9256;SDS011;4665;51.368;6.782;2023-09-19T07:10:39;6.70;;;2.20;;
9256;SDS011;4665;51.368;6.782;2023-09-19T07:13:13;9.70;;;2.90;;
9256;SDS011;4665;51.368;6.782;2023-09-19T07:15:41;9.00;;;2.57;;
9256;SDS011;4665;51.368;6.782;2023-09-19T07:18:11;7.57;;;2.40;;
9256;SDS011;4665;51.368;6.782;2023-09-19T07:20:37;5.53;;;2.27;;
9256;SDS011;4665;51.368;6.782;2023-09-19T07:23:03;5.63;;;2.63;;
9256;SDS011;4665;51.368;6.782;2023-09-19T07:25:29;9.83;;;3.00;;
9256;SDS011;4665;51.368;6.782;2023-09-19T07:27:57;7.27;;;2.80;;
9256;SDS011;4665;51.368;6.782;2023-09-19T07:30:26;6.83;;;2.97;;
9256;SDS011;4665;51.368;6.782;2023-09-19T07:32:51;7.97;;;2.93;;
9256;SDS011;4665;51.368;6.782;2023-09-19T07:35:17;7.30;;;2.57;;
9256;SDS011;4665;51.368;6.782;2023-09-19T07:37:45;5.53;;;2.83;;
9256;SDS011;4665;51.368;6.782;2023-09-19T07:40:14;9.57;;;2.83;;
9256;SDS011;4665;51.368;6.782;2023-09-19T07:42:39;8.03;;;2.77;;
9256;SDS011;4665;51.368;6.782;2023-09-19T07:45:06;7.90;;;2.70;;
9256;SDS011;4665;51.368;6.782;2023-09-19T07:47:32;7.97;;;2.80;;
9256;SDS011;4665;51.368;6.782;2023-09-19T07:49:58;6.90;;;2.63;;
9256;SDS011;4665;51.368;6.782;2023-09-19T07:52:24;9.90;;;2.97;;
9256;SDS011;4665;51.368;6.782;2023-09-19T07:54:49;9.10;;;2.73;;
9256;SDS011;4665;51.368;6.782;2023-09-19T07:57:14;6.30;;;2.23;;
9256;SDS011;4665;51.368;6.782;2023-09-19T07:59:40;7.57;;;2.60;;
9256;SDS011;4665;51.368;6.782;2023-09-19T08:02:07;7.30;;;2.50;;
9256;SDS011;4665;51.368;6.782;2023-09-19T08:04:34;9.47;;;2.73;;
9256;SDS011;4665;51.368;6.782;2023-09-19T08:07:00;5.93;;;2.50;;
9256;SDS011;4665;51.368;6.782;2023-09-19T08:09:25;6.90;;;2.47;;
9256;SDS011;4665;51.368;6.782;2023-09-19T08:11:51;9.70;;;2.93;;
9256;SDS011;4665;51.368;6.782;2023-09-19T08:14:16;9.73;;;2.70;;
9256;SDS011;4665;51.368;6.782;2023-09-19T08:16:41;6.77;;;2.40;;
9256;SDS011;4665;51.368;6.782;2023-09-19T08:19:08;10.47;;;2.50;;
9256;SDS011;4665;51.368;6.782;2023-09-19T08:21:33;8.67;;;2.47;;
9256;SDS011;4665;51.368;6.782;2023-09-19T08:23:58;6.77;;;2.60;;
9256;SDS011;4665;51.368;6.782;2023-09-19T08:26:23;4.87;;;2.27;;
9256;SDS011;4665;51.368;6.782;2023-09-19T08:28:49;8.50;;;3.13;;
9256;SDS011;4665;51.368;6.782;2023-09-19T08:31:16;10.13;;;3.00;;
9256;SDS011;4665;51.368;6.782;2023-09-19T08:33:42;8.67;;;2.70;;
9256;SDS011;4665;51.368;6.782;2023-09-19T08:36:09;8.47;;;2.60;;
9256;SDS011;4665;51.368;6.782;2023-09-19T08:38:35;6.33;;;2.90;;
9256;SDS011;4665;51.368;6.782;2023-09-19T08:41:05;4.17;;;2.20;;
9256;SDS011;4665;51.368;6.782;2023-09-19T08:43:30;8.27;;;3.00;;
9256;SDS011;4665;51.368;6.782;2023-09-19T08:46:20;5.47;;;2.40;;
9256;SDS011;4665;51.368;6.782;2023-09-19T08:48:54;9.30;;;3.20;;
9256;SDS011;4665;51.368;6.782;2023-09-19T08:51:58;7.20;;;2.33;;
9256;SDS011;4665;51.368;6.782;2023-09-19T08:54:22;4.47;;;2.37;;
9256;SDS011;4665;51.368;6.782;2023-09-19T08:56:48;7.97;;;2.70;;
9256;SDS011;4665;51.368;6.782;2023-09-19T08:59:14;6.13;;;2.33;;
9256;SDS011;4665;51.368;6.782;2023-09-19T09:01:39;8.57;;;2.40;;
9256;SDS011;4665;51.368;6.782;2023-09-19T09:04:07;8.13;;;2.83;;
9256;SDS011;4665;51.368;6.782;2023-09-19T09:06:34;6.30;;;2.87;;
9256;SDS011;4665;51.368;6.782;2023-09-19T09:08:59;7.90;;;2.70;;
9256;SDS011;4665;51.368;6.782;2023-09-19T09:11:25;5.30;;;2.03;;
9256;SDS011;4665;51.368;6.782;2023-09-19T09:13:50;7.43;;;2.47;;
9256;SDS011;4665;51.368;6.782;2023-09-19T09:16:16;8.43;;;2.47;;
9256;SDS011;4665;51.368;6.782;2023-09-19T09:18:47;5.80;;;2.67;;
9256;SDS011;4665;51.368;6.782;2023-09-19T09:21:17;6.20;;;2.47;;
9256;SDS011;4665;51.368;6.782;2023-09-19T09:23:43;5.10;;;2.10;;
9256;SDS011;4665;51.368;6.782;2023-09-19T09:26:08;10.07;;;2.97;;
9256;SDS011;4665;51.368;6.782;2023-09-19T09:28:34;10.30;;;2.67;;
9256;SDS011;4665;51.368;6.782;2023-09-19T09:31:04;6.13;;;2.37;;
9256;SDS011;4665;51.368;6.782;2023-09-19T09:33:34;7.70;;;2.83;;
9256;SDS011;4665;51.368;6.782;2023-09-19T09:35:59;7.77;;;2.73;;
9256;SDS011;4665;51.368;6.782;2023-09-19T09:41:10;6.70;;;2.50;;
9256;SDS011;4665;51.368;6.782;2023-09-19T09:43:40;7.87;;;3.07;;
9256;SDS011;4665;51.368;6.782;2023-09-19T09:49:03;6.90;;;2.40;;
9256;SDS011;4665;51.368;6.782;2023-09-19T09:54:15;6.80;;;2.70;;
9256;SDS011;4665;51.368;6.782;2023-09-19T09:57:00;7.97;;;2.47;;
9256;SDS011;4665;51.368;6.782;2023-09-19T10:02:17;10.23;;;2.60;;
9256;SDS011;4665;51.368;6.782;2023-09-19T10:04:50;5.77;;;2.37;;
9256;SDS011;4665;51.368;6.782;2023-09-19T10:07:39;10.53;;;2.93;;
9256;SDS011;4665;51.368;6.782;2023-09-19T10:10:07;7.30;;;2.70;;
9256;SDS011;4665;51.368;6.782;2023-09-19T10:12:45;4.47;;;2.07;;
9256;SDS011;4665;51.368;6.782;2023-09-19T10:15:11;5.33;;;2.47;;
9256;SDS011;4665;51.368;6.782;2023-09-19T10:17:44;6.67;;;2.10;;
9256;SDS011;4665;51.368;6.782;2023-09-19T10:20:12;6.50;;;2.73;;
9256;SDS011;4665;51.368;6.782;2023-09-19T10:22:47;7.23;;;2.40;;
9256;SDS011;4665;51.368;6.782;2023-09-19T10:25:23;3.83;;;2.20;;
9256;SDS011;4665;51.368;6.782;2023-09-19T10:27:50;7.33;;;2.77;;
9256;SDS011;4665;51.368;6.782;2023-09-19T10:30:18;6.30;;;2.53;;
9256;SDS011;4665;51.368;6.782;2023-09-19T10:32:44;4.47;;;2.60;;
9256;SDS011;4665;51.368;6.782;2023-09-19T10:35:11;8.13;;;2.73;;
9256;SDS011;4665;51.368;6.782;2023-09-19T10:37:39;5.40;;;2.53;;
9256;SDS011;4665;51.368;6.782;2023-09-19T10:40:06;4.83;;;2.10;;
9256;SDS011;4665;51.368;6.782;2023-09-19T10:42:33;10.77;;;2.57;;
9256;SDS011;4665;51.368;6.782;2023-09-19T10:45:01;6.50;;;2.30;;
9256;SDS011;4665;51.368;6.782;2023-09-19T10:47:28;6.30;;;2.20;;
9256;SDS011;4665;51.368;6.782;2023-09-19T10:49:53;7.03;;;3.03;;
9256;SDS011;4665;51.368;6.782;2023-09-19T10:52:20;6.50;;;2.47;;
9256;SDS011;4665;51.368;6.782;2023-09-19T10:54:48;8.17;;;2.70;;
9256;SDS011;4665;51.368;6.782;2023-09-19T10:57:20;7.37;;;2.60;;
9256;SDS011;4665;51.368;6.782;2023-09-19T11:00:04;7.50;;;2.47;;
9256;SDS011;4665;51.368;6.782;2023-09-19T11:03:15;4.63;;;2.03;;
9256;SDS011;4665;51.368;6.782;2023-09-19T11:05:31;7.33;;;2.53;;
9256;SDS011;4665;51.368;6.782;2023-09-19T11:07:57;6.90;;;2.53;;
9256;SDS011;4665;51.368;6.782;2023-09-19T11:10:43;3.43;;;2.47;;
9256;SDS011;4665;51.368;6.782;2023-09-19T11:13:25;8.33;;;2.50;;
9256;SDS011;4665;51.368;6.782;2023-09-19T11:24:27;8.83;;;2.63;;
9256;SDS011;4665;51.368;6.782;2023-09-19T11:26:47;4.73;;;1.80;;
9256;SDS011;4665;51.368;6.782;2023-09-19T11:29:26;6.03;;;2.57;;
9256;SDS011;4665;51.368;6.782;2023-09-19T11:31:51;6.47;;;2.10;;
9256;SDS011;4665;51.368;6.782;2023-09-19T11:37:00;8.73;;;2.20;;
9256;SDS011;4665;51.368;6.782;2023-09-19T11:39:28;5.73;;;2.50;;
9256;SDS011;4665;51.368;6.782;2023-09-19T11:41:54;8.37;;;2.37;;
9256;SDS011;4665;51.368;6.782;2023-09-19T11:44:31;4.30;;;2.27;;
9256;SDS011;4665;51.368;6.782;2023-09-19T11:46:58;6.10;;;2.40;;
9256;SDS011;4665;51.368;6.782;2023-09-19T11:49:30;3.83;;;2.30;;
9256;SDS011;4665;51.368;6.782;2023-09-19T11:51:57;5.83;;;2.60;;
9256;SDS011;4665;51.368;6.782;2023-09-19T11:54:25;7.63;;;2.60;;
9256;SDS011;4665;51.368;6.782;2023-09-19T11:56:54;4.03;;;2.60;;
9256;SDS011;4665;51.368;6.782;2023-09-19T11:59:20;4.30;;;2.03;;
9256;SDS011;4665;51.368;6.782;2023-09-19T12:01:50;3.37;;;1.93;;
9256;SDS011;4665;51.368;6.782;2023-09-19T12:04:16;5.47;;;2.27;;
9256;SDS011;4665;51.368;6.782;2023-09-19T12:06:43;3.90;;;2.10;;
9256;SDS011;4665;51.368;6.782;2023-09-19T12:09:12;4.60;;;2.23;;
9256;SDS011;4665;51.368;6.782;2023-09-19T12:11:42;4.27;;;2.37;;
9256;SDS011;4665;51.368;6.782;2023-09-19T12:14:09;4.93;;;2.30;;
9256;SDS011;4665;51.368;6.782;2023-09-19T12:16:34;7.77;;;2.53;;
9256;SDS011;4665;51.368;6.782;2023-09-19T12:19:17;5.03;;;2.50;;
9256;SDS011;4665;51.368;6.782;2023-09-19T12:21:42;6.73;;;2.33;;
9256;SDS011;4665;51.368;6.782;2023-09-19T12:24:11;5.20;;;2.23;;
9256;SDS011;4665;51.368;6.782;2023-09-19T12:26:45;5.43;;;2.20;;
9256;SDS011;4665;51.368;6.782;2023-09-19T12:29:16;4.20;;;2.27;;
9256;SDS011;4665;51.368;6.782;2023-09-19T12:31:55;4.87;;;2.43;;
9256;SDS011;4665;51.368;6.782;2023-09-19T12:34:31;4.30;;;2.10;;
9256;SDS011;4665;51.368;6.782;2023-09-19T12:39:36;6.30;;;2.30;;
9256;SDS011;4665;51.368;6.782;2023-09-19T12:42:02;4.10;;;1.70;;
9256;SDS011;4665;51.368;6.782;2023-09-19T12:44:29;4.87;;;2.10;;
9256;SDS011;4665;51.368;6.782;2023-09-19T12:46:54;3.43;;;2.10;;
9256;SDS011;4665;51.368;6.782;2023-09-19T12:49:24;7.37;;;2.33;;
9256;SDS011;4665;51.368;6.782;2023-09-19T12:51:49;3.80;;;2.07;;
9256;SDS011;4665;51.368;6.782;2023-09-19T12:54:19;6.67;;;2.47;;
9256;SDS011;4665;51.368;6.782;2023-09-19T12:56:45;3.67;;;2.03;;
9256;SDS011;4665;51.368;6.782;2023-09-19T12:59:12;4.97;;;1.83;;
9256;SDS011;4665;51.368;6.782;2023-09-19T13:01:41;4.80;;;2.07;;
9256;SDS011;4665;51.368;6.782;2023-09-19T13:06:50;3.00;;;2.03;;
9256;SDS011;4665;51.368;6.782;2023-09-19T13:09:20;3.93;;;1.67;;
9256;SDS011;4665;51.368;6.782;2023-09-19T13:11:45;6.47;;;1.70;;
9256;SDS011;4665;51.368;6.782;2023-09-19T13:19:38;3.37;;;1.90;;
9256;SDS011;4665;51.368;6.782;2023-09-19T13:22:05;4.03;;;2.20;;
9256;SDS011;4665;51.368;6.782;2023-09-19T13:24:31;3.50;;;1.93;;
9256;SDS011;4665;51.368;6.782;2023-09-19T13:26:58;7.47;;;1.73;;
9256;SDS011;4665;51.368;6.782;2023-09-19T13:29:25;7.30;;;1.83;;
9256;SDS011;4665;51.368;6.782;2023-09-19T13:31:51;5.10;;;1.87;;
9256;SDS011;4665;51.368;6.782;2023-09-19T13:34:18;3.13;;;1.90;;
9256;SDS011;4665;51.368;6.782;2023-09-19T13:36:43;6.97;;;1.40;;
9256;SDS011;4665;51.368;6.782;2023-09-19T13:39:09;3.07;;;1.70;;
9256;SDS011;4665;51.368;6.782;2023-09-19T13:41:34;5.87;;;1.73;;
9256;SDS011;4665;51.368;6.782;2023-09-19T13:44:02;3.57;;;1.83;;
9256;SDS011;4665;51.368;6.782;2023-09-19T13:46:27;4.30;;;1.57;;
9256;SDS011;4665;51.368;6.782;2023-09-19T13:48:52;2.00;;;1.40;;
9256;SDS011;4665;51.368;6.782;2023-09-19T13:51:20;3.10;;;1.50;;
9256;SDS011;4665;51.368;6.782;2023-09-19T13:53:47;2.63;;;1.60;;
9256;SDS011;4665;51.368;6.782;2023-09-19T13:56:13;1.93;;;1.40;;
9256;SDS011;4665;51.368;6.782;2023-09-19T13:58:38;7.47;;;2.10;;
9256;SDS011;4665;51.368;6.782;2023-09-19T14:01:04;3.43;;;1.57;;
9256;SDS011;4665;51.368;6.782;2023-09-19T14:03:29;4.83;;;1.60;;
9256;SDS011;4665;51.368;6.782;2023-09-19T14:05:54;1.80;;;1.47;;
9256;SDS011;4665;51.368;6.782;2023-09-19T14:08:19;4.70;;;1.67;;
9256;SDS011;4665;51.368;6.782;2023-09-19T14:10:45;3.30;;;1.40;;
9256;SDS011;4665;51.368;6.782;2023-09-19T14:13:10;2.13;;;1.37;;
9256;SDS011;4665;51.368;6.782;2023-09-19T14:15:38;2.13;;;1.50;;
9256;SDS011;4665;51.368;6.782;2023-09-19T14:18:04;3.30;;;1.80;;
9256;SDS011;4665;51.368;6.782;2023-09-19T14:20:29;4.10;;;1.60;;
9256;SDS011;4665;51.368;6.782;2023-09-19T14:22:55;5.37;;;1.67;;
9256;SDS011;4665;51.368;6.782;2023-09-19T14:25:21;3.73;;;1.40;;
9256;SDS011;4665;51.368;6.782;2023-09-19T14:27:46;2.73;;;1.50;;
9256;SDS011;4665;51.368;6.782;2023-09-19T14:30:12;2.37;;;1.33;;
9256;SDS011;4665;51.368;6.782;2023-09-19T14:32:38;2.77;;;1.60;;
9256;SDS011;4665;51.368;6.782;2023-09-19T14:35:04;3.70;;;1.43;;
9256;SDS011;4665;51.368;6.782;2023-09-19T14:37:29;4.67;;;1.27;;
9256;SDS011;4665;51.368;6.782;2023-09-19T14:39:56;6.13;;;1.23;;
9256;SDS011;4665;51.368;6.782;2023-09-19T14:42:21;2.77;;;1.43;;
9256;SDS011;4665;51.368;6.782;2023-09-19T14:44:46;2.80;;;1.20;;
9256;SDS011;4665;51.368;6.782;2023-09-19T14:47:13;1.50;;;1.20;;
9256;SDS011;4665;51.368;6.782;2023-09-19T14:49:39;2.77;;;1.17;;
9256;SDS011;4665;51.368;6.782;2023-09-19T14:52:08;1.30;;;1.20;;
9256;SDS011;4665;51.368;6.782;2023-09-19T14:54:33;4.77;;;1.60;;
9256;SDS011;4665;51.368;6.782;2023-09-19T14:56:59;2.87;;;1.40;;
9256;SDS011;4665;51.368;6.782;2023-09-19T14:59:34;3.10;;;1.40;;
9256;SDS011;4665;51.368;6.782;2023-09-19T15:02:02;1.50;;;1.40;;
9256;SDS011;4665;51.368;6.782;2023-09-19T15:04:28;4.67;;;0.93;;
9256;SDS011;4665;51.368;6.782;2023-09-19T15:06:54;3.23;;;1.50;;
9256;SDS011;4665;51.368;6.782;2023-09-19T15:09:20;2.97;;;1.40;;
9256;SDS011;4665;51.368;6.782;2023-09-19T15:11:46;2.83;;;1.30;;
9256;SDS011;4665;51.368;6.782;2023-09-19T15:14:12;2.27;;;1.40;;
9256;SDS011;4665;51.368;6.782;2023-09-19T15:16:37;2.83;;;1.10;;
9256;SDS011;4665;51.368;6.782;2023-09-19T15:19:02;2.60;;;1.30;;
9256;SDS011;4665;51.368;6.782;2023-09-19T15:21:28;2.30;;;1.37;;
9256;SDS011;4665;51.368;6.782;2023-09-19T15:23:53;2.30;;;1.40;;
9256;SDS011;4665;51.368;6.782;2023-09-19T15:26:18;2.27;;;1.37;;
9256;SDS011;4665;51.368;6.782;2023-09-19T15:28:45;0.87;;;0.83;;
9256;SDS011;4665;51.368;6.782;2023-09-19T15:31:11;1.63;;;1.40;;
9256;SDS011;4665;51.368;6.782;2023-09-19T15:33:37;3.10;;;0.93;;
9256;SDS011;4665;51.368;6.782;2023-09-19T15:36:20;1.97;;;1.20;;
9256;SDS011;4665;51.368;6.782;2023-09-19T15:38:55;1.83;;;1.30;;
9256;SDS011;4665;51.368;6.782;2023-09-19T15:41:28;4.47;;;1.20;;
9256;SDS011;4665;51.368;6.782;2023-09-19T15:43:54;1.70;;;0.80;;
9256;SDS011;4665;51.368;6.782;2023-09-19T15:46:19;1.57;;;1.20;;
9256;SDS011;4665;51.368;6.782;2023-09-19T15:48:45;2.47;;;1.03;;
9256;SDS011;4665;51.368;6.782;2023-09-19T15:51:11;1.00;;;0.80;;
9256;SDS011;4665;51.368;6.782;2023-09-19T15:53:43;0.87;;;0.83;;
9256;SDS011;4665;51.368;6.782;2023-09-19T15:56:10;1.17;;;0.77;;
9256;SDS011;4665;51.368;6.782;2023-09-19T15:58:36;2.20;;;1.33;;
9256;SDS011;4665;51.368;6.782;2023-09-19T16:01:08;1.30;;;1.20;;
9256;SDS011;4665;51.368;6.782;2023-09-19T16:03:40;3.37;;;1.17;;
9256;SDS011;4665;51.368;6.782;2023-09-19T16:06:11;2.40;;;1.00;;
9256;SDS011;4665;51.368;6.782;2023-09-19T16:08:44;3.70;;;1.23;;